Time;durP1;ratioP1;P1;durP2;ratioP2;P2;SDS_P1;SDS_P2;PMS_P1;PMS_P2;Temp;Humidity;BMP_temperature;BMP_pressure;BME280_temperature;BME280_humidity;BME280_pressure;Samples;Min_cycle;Max_cycle;Signal;HPM_P1;HPM_P2
2023/08/15 00:00:19;;;;;;;6.33;3.47;;;;;;;;;;5056321;28;20871;-46
2023/08/15 00:02:44;;;;;;;6.20;3.50;;;;;;;;;;5054115;28;20279;-46
2023/08/15 00:05:10;;;;;;;9.63;3.67;;;;;;;;;;5027771;28;20607;-46
2023/08/15 00:07:35;;;;;;;5.88;3.47;;;;;;;;;;5050075;28;20032;-45
2023/08/15 00:10:01;;;;;;;6.25;3.22;;;;;;;;;;5052426;28;20032;-46
2023/08/15 00:12:26;;;;;;;5.03;3.28;;;;;;;;;;5051501;28;20060;-46
2023/08/15 00:14:51;;;;;;;4.57;3.35;;;;;;;;;;5047344;28;20511;-46
2023/08/15 00:17:17;;;;;;;5.57;3.63;;;;;;;;;;5046366;28;20039;-46
2023/08/15 00:19:42;;;;;;;5.20;3.60;;;;;;;;;;5053194;28;20094;-46
2023/08/15 00:22:07;;;;;;;8.27;4.17;;;;;;;;;;5050194;28;20040;-46
2023/08/15 00:24:32;;;;;;;5.65;3.88;;;;;;;;;;5050076;28;20294;-46
2023/08/15 00:26:58;;;;;;;4.33;3.43;;;;;;;;;;5052713;28;20094;-45
2023/08/15 00:29:23;;;;;;;8.23;3.78;;;;;;;;;;5049044;28;20753;-45
2023/08/15 00:31:48;;;;;;;7.27;4.00;;;;;;;;;;5049076;28;20044;-45
2023/08/15 00:34:14;;;;;;;7.00;3.93;;;;;;;;;;5049243;28;20028;-45
2023/08/15 00:36:39;;;;;;;6.80;3.63;;;;;;;;;;5050270;28;20282;-45
2023/08/15 00:39:04;;;;;;;6.13;3.40;;;;;;;;;;5052570;28;20040;-45
2023/08/15 00:41:30;;;;;;;5.93;3.40;;;;;;;;;;5054170;28;20271;-45
2023/08/15 00:43:58;;;;;;;5.47;3.13;;;;;;;;;;5054361;28;20370;-45
2023/08/15 00:46:24;;;;;;;5.72;3.40;;;;;;;;;;5053360;28;20020;-45
2023/08/15 00:48:49;;;;;;;6.47;3.80;;;;;;;;;;5047083;28;20012;-45
2023/08/15 00:51:16;;;;;;;8.20;4.68;;;;;;;;;;5046153;28;20041;-45
2023/08/15 00:53:42;;;;;;;17.02;4.57;;;;;;;;;;5056213;28;20052;-46
2023/08/15 00:56:08;;;;;;;12.52;5.75;;;;;;;;;;5052684;28;20107;-55
2023/08/15 00:58:34;;;;;;;9.18;6.07;;;;;;;;;;5058687;28;21568;-57
2023/08/15 01:00:59;;;;;;;12.30;6.25;;;;;;;;;;5061671;28;20031;-56
2023/08/15 01:03:24;;;;;;;17.37;7.73;;;;;;;;;;5049703;28;20070;-57
2023/08/15 01:05:50;;;;;;;30.67;11.55;;;;;;;;;;5048932;28;20614;-56
2023/08/15 01:08:15;;;;;;;14.17;7.63;;;;;;;;;;5055570;28;20785;-60
2023/08/15 01:10:41;;;;;;;13.93;7.10;;;;;;;;;;5057638;28;20056;-60
2023/08/15 01:13:25;;;;;;;22.20;8.70;;;;;;;;;;5050092;28;20052;-55
2023/08/15 01:15:51;;;;;;;14.88;6.85;;;;;;;;;;5051411;28;20027;-56
2023/08/15 01:18:26;;;;;;;13.43;7.38;;;;;;;;;;5052180;28;20029;-57
2023/08/15 01:20:53;;;;;;;18.73;7.60;;;;;;;;;;5056876;28;20380;-56
2023/08/15 01:23:20;;;;;;;22.30;9.93;;;;;;;;;;5053623;28;20031;-57
2023/08/15 01:25:48;;;;;;;21.23;8.50;;;;;;;;;;5054858;28;20103;-54
2023/08/15 01:28:14;;;;;;;12.75;7.93;;;;;;;;;;5051831;28;20032;-55
2023/08/15 01:30:54;;;;;;;15.23;7.82;;;;;;;;;;5053350;28;20043;-55
2023/08/15 01:33:23;;;;;;;23.27;10.38;;;;;;;;;;5052726;28;20025;-56
2023/08/15 01:35:51;;;;;;;14.82;8.48;;;;;;;;;;5049305;28;20074;-56
2023/08/15 01:38:29;;;;;;;13.20;7.18;;;;;;;;;;5048923;28;20043;-55
2023/08/15 01:40:55;;;;;;;17.75;7.07;;;;;;;;;;5054723;28;20017;-53
2023/08/15 01:43:20;;;;;;;21.83;7.72;;;;;;;;;;5053192;28;20043;-53
2023/08/15 01:45:46;;;;;;;13.90;3.15;;;;;;;;;;5051106;28;20024;-53
2023/08/15 01:48:11;;;;;;;18.42;3.22;;;;;;;;;;5053743;28;20385;-56
2023/08/15 01:50:37;;;;;;;11.10;3.78;;;;;;;;;;5058487;28;20037;-55
2023/08/15 01:53:02;;;;;;;8.87;4.60;;;;;;;;;;5052770;28;20467;-55
2023/08/15 01:55:27;;;;;;;12.57;5.13;;;;;;;;;;5054511;28;20067;-55
2023/08/15 01:57:53;;;;;;;17.65;6.55;;;;;;;;;;5054323;28;20369;-57
2023/08/15 02:00:18;;;;;;;12.83;7.27;;;;;;;;;;5052031;28;20751;-55
2023/08/15 02:02:43;;;;;;;10.77;5.25;;;;;;;;;;5058095;28;20025;-55
2023/08/15 02:05:08;;;;;;;14.02;7.00;;;;;;;;;;5055302;28;20028;-55
2023/08/15 02:07:34;;;;;;;15.43;6.43;;;;;;;;;;5051057;28;20016;-55
2023/08/15 02:09:59;;;;;;;23.15;7.55;;;;;;;;;;5054364;28;20070;-53
2023/08/15 02:12:25;;;;;;;23.55;8.20;;;;;;;;;;5053456;28;21480;-54
2023/08/15 02:14:50;;;;;;;20.83;7.60;;;;;;;;;;5050600;28;20098;-53
2023/08/15 02:17:15;;;;;;;21.03;7.37;;;;;;;;;;5055009;28;20287;-55
2023/08/15 02:19:41;;;;;;;20.13;7.45;;;;;;;;;;5054623;28;20029;-55
2023/08/15 02:22:07;;;;;;;14.52;7.90;;;;;;;;;;5055551;28;20024;-55
2023/08/15 02:24:32;;;;;;;14.05;5.60;;;;;;;;;;5052406;28;20036;-58
2023/08/15 02:26:58;;;;;;;21.67;7.60;;;;;;;;;;5053132;28;20020;-55
2023/08/15 02:29:23;;;;;;;12.95;6.75;;;;;;;;;;5057371;28;20483;-54
2023/08/15 02:31:48;;;;;;;27.37;8.03;;;;;;;;;;5053116;28;20085;-54
2023/08/15 02:34:17;;;;;;;22.30;8.50;;;;;;;;;;5051307;28;20056;-56
2023/08/15 02:36:48;;;;;;;23.88;7.60;;;;;;;;;;5050382;28;20283;-55
2023/08/15 02:39:15;;;;;;;23.23;7.80;;;;;;;;;;5046220;28;20029;-55
2023/08/15 02:41:41;;;;;;;18.77;7.68;;;;;;;;;;5054004;28;20031;-54
2023/08/15 02:44:06;;;;;;;26.00;7.53;;;;;;;;;;5045786;28;20032;-53
2023/08/15 02:46:31;;;;;;;30.07;8.97;;;;;;;;;;5048626;28;20040;-52
2023/08/15 02:48:56;;;;;;;17.40;6.70;;;;;;;;;;5047996;28;20016;-54
2023/08/15 02:51:22;;;;;;;13.20;7.20;;;;;;;;;;5051051;28;20016;-53
2023/08/15 02:53:47;;;;;;;13.90;7.07;;;;;;;;;;5055757;28;20278;-54
2023/08/15 02:56:12;;;;;;;15.27;6.77;;;;;;;;;;5044714;28;20019;-53
2023/08/15 02:58:38;;;;;;;9.40;3.60;;;;;;;;;;5049727;28;20030;-53
2023/08/15 03:01:03;;;;;;;10.83;5.43;;;;;;;;;;5048008;28;20157;-54
2023/08/15 03:03:29;;;;;;;12.57;6.63;;;;;;;;;;5050713;28;20025;-52
2023/08/15 03:05:58;;;;;;;15.32;6.53;;;;;;;;;;5047403;28;20024;-52
2023/08/15 03:08:23;;;;;;;13.13;5.72;;;;;;;;;;5048060;28;20078;-53
2023/08/15 03:10:50;;;;;;;13.53;5.90;;;;;;;;;;5050628;28;20748;-53
2023/08/15 03:13:15;;;;;;;12.20;5.63;;;;;;;;;;5052207;28;20039;-53
2023/08/15 03:15:42;;;;;;;14.47;5.80;;;;;;;;;;5049510;28;20137;-53
2023/08/15 03:18:08;;;;;;;11.20;4.88;;;;;;;;;;5052735;28;20287;-54
2023/08/15 03:20:33;;;;;;;8.30;5.35;;;;;;;;;;5049873;28;20028;-54
2023/08/15 03:22:58;;;;;;;9.25;4.75;;;;;;;;;;5052386;28;20124;-53
2023/08/15 03:25:24;;;;;;;12.20;5.67;;;;;;;;;;5045787;28;21151;-52
2023/08/15 03:27:49;;;;;;;9.60;5.03;;;;;;;;;;5050503;28;20017;-53
2023/08/15 03:30:14;;;;;;;7.57;4.50;;;;;;;;;;5050064;28;20271;-55
2023/08/15 03:32:39;;;;;;;9.70;4.57;;;;;;;;;;5047717;28;20020;-54
2023/08/15 03:35:06;;;;;;;7.70;4.25;;;;;;;;;;5053083;28;20035;-53
2023/08/15 03:37:31;;;;;;;8.18;4.22;;;;;;;;;;5049212;28;20055;-54
2023/08/15 03:39:56;;;;;;;12.70;5.33;;;;;;;;;;5050713;28;20083;-54
2023/08/15 03:42:21;;;;;;;7.87;4.70;;;;;;;;;;5051126;28;20284;-54
2023/08/15 03:44:47;;;;;;;9.10;5.03;;;;;;;;;;5047846;28;20449;-54
2023/08/15 03:47:12;;;;;;;8.70;4.13;;;;;;;;;;5046574;28;20389;-54
2023/08/15 03:49:37;;;;;;;9.77;4.80;;;;;;;;;;5050354;28;20527;-55
2023/08/15 03:52:03;;;;;;;12.13;5.20;;;;;;;;;;5052234;28;20033;-54
2023/08/15 03:54:28;;;;;;;9.85;6.63;;;;;;;;;;5045988;28;20040;-55
2023/08/15 03:56:53;;;;;;;9.30;5.17;;;;;;;;;;5050747;28;20540;-55
2023/08/15 03:59:19;;;;;;;8.73;4.70;;;;;;;;;;5054404;28;20289;-55
2023/08/15 04:01:44;;;;;;;8.20;4.93;;;;;;;;;;5053236;28;20275;-55
2023/08/15 04:04:10;;;;;;;9.83;4.93;;;;;;;;;;5052974;28;20593;-57
2023/08/15 04:06:35;;;;;;;7.13;4.72;;;;;;;;;;5047683;28;20024;-55
2023/08/15 04:09:00;;;;;;;9.97;5.10;;;;;;;;;;5052483;28;20377;-56
2023/08/15 04:11:26;;;;;;;10.10;5.15;;;;;;;;;;5046027;28;20326;-57
2023/08/15 04:13:51;;;;;;;9.25;5.63;;;;;;;;;;5044516;28;20047;-58
2023/08/15 04:16:17;;;;;;;7.60;4.73;;;;;;;;;;5053937;28;20092;-62
2023/08/15 04:18:42;;;;;;;11.30;6.53;;;;;;;;;;5050054;28;20271;-61
2023/08/15 04:21:09;;;;;;;7.30;5.40;;;;;;;;;;5032961;28;21672;-61
2023/08/15 04:23:34;;;;;;;10.00;6.63;;;;;;;;;;5053576;28;20279;-62
2023/08/15 04:25:59;;;;;;;11.13;6.90;;;;;;;;;;5052130;28;20600;-59
2023/08/15 04:28:25;;;;;;;10.33;6.73;;;;;;;;;;5050293;28;20283;-62
2023/08/15 04:30:50;;;;;;;13.67;7.80;;;;;;;;;;5058595;28;20499;-60
2023/08/15 04:33:16;;;;;;;14.00;6.73;;;;;;;;;;5057047;28;20016;-62
2023/08/15 04:35:41;;;;;;;11.85;6.72;;;;;;;;;;5051808;28;20120;-61
2023/08/15 04:38:06;;;;;;;12.10;6.82;;;;;;;;;;5055219;28;20032;-57
2023/08/15 04:40:40;;;;;;;11.47;7.23;;;;;;;;;;5051685;28;20144;-59
2023/08/15 04:43:05;;;;;;;12.30;7.60;;;;;;;;;;5055165;28;20298;-58
2023/08/15 04:45:31;;;;;;;14.15;7.07;;;;;;;;;;5056976;28;20037;-60
2023/08/15 04:47:56;;;;;;;12.05;8.38;;;;;;;;;;5053202;28;20016;-55
2023/08/15 04:50:21;;;;;;;13.93;9.10;;;;;;;;;;5054225;28;20023;-59
2023/08/15 04:52:47;;;;;;;11.50;7.50;;;;;;;;;;5056061;28;20690;-53
2023/08/15 04:55:13;;;;;;;11.80;7.30;;;;;;;;;;5057271;28;20035;-56
2023/08/15 04:57:38;;;;;;;12.90;8.20;;;;;;;;;;5053187;28;20040;-55
2023/08/15 05:00:08;;;;;;;12.38;8.52;;;;;;;;;;5058586;28;20028;-53
2023/08/15 05:02:34;;;;;;;14.23;8.93;;;;;;;;;;5055430;28;20037;-52
2023/08/15 05:04:59;;;;;;;21.88;9.57;;;;;;;;;;5052740;28;20028;-51
2023/08/15 05:07:24;;;;;;;12.07;8.27;;;;;;;;;;5049809;28;20021;-53
2023/08/15 05:09:49;;;;;;;14.87;9.67;;;;;;;;;;5057216;28;20600;-51
2023/08/15 05:12:15;;;;;;;14.50;8.90;;;;;;;;;;5054694;28;20031;-51
2023/08/15 05:14:40;;;;;;;15.93;9.07;;;;;;;;;;5047604;28;20032;-51
2023/08/15 05:17:05;;;;;;;15.70;8.93;;;;;;;;;;5052565;28;20073;-51
2023/08/15 05:19:30;;;;;;;14.67;9.20;;;;;;;;;;5056310;28;20040;-54
2023/08/15 05:21:56;;;;;;;14.87;9.40;;;;;;;;;;5055371;28;20848;-50
2023/08/15 05:24:24;;;;;;;16.52;9.38;;;;;;;;;;5054254;28;20036;-50
2023/08/15 05:26:49;;;;;;;16.23;10.23;;;;;;;;;;5049330;28;20032;-53
2023/08/15 05:29:14;;;;;;;14.27;10.37;;;;;;;;;;5054908;28;20039;-53
2023/08/15 05:31:40;;;;;;;16.60;9.27;;;;;;;;;;5055972;28;20059;-51
2023/08/15 05:34:05;;;;;;;13.20;9.73;;;;;;;;;;5054608;28;21335;-51
2023/08/15 05:36:30;;;;;;;16.87;9.63;;;;;;;;;;5052349;28;20279;-53
2023/08/15 05:38:56;;;;;;;12.17;8.80;;;;;;;;;;5051104;28;20447;-49
2023/08/15 05:41:21;;;;;;;17.38;9.30;;;;;;;;;;5056648;28;20040;-50
2023/08/15 05:43:46;;;;;;;17.63;9.73;;;;;;;;;;5051632;28;20028;-52
2023/08/15 05:46:11;;;;;;;15.07;9.07;;;;;;;;;;5059633;28;20529;-52
2023/08/15 05:48:38;;;;;;;14.07;8.57;;;;;;;;;;5054851;28;20027;-51
2023/08/15 05:51:03;;;;;;;18.95;9.68;;;;;;;;;;5053497;28;20020;-55
2023/08/15 05:53:29;;;;;;;14.77;8.90;;;;;;;;;;5051598;28;20483;-55
2023/08/15 05:55:55;;;;;;;13.10;8.35;;;;;;;;;;5055008;28;20079;-54
2023/08/15 05:58:20;;;;;;;11.33;7.83;;;;;;;;;;5048293;28;20036;-50
2023/08/15 06:00:45;;;;;;;13.53;8.60;;;;;;;;;;5049660;28;20029;-50
2023/08/15 06:03:10;;;;;;;17.95;9.52;;;;;;;;;;5050551;28;20030;-55
2023/08/15 06:05:36;;;;;;;11.20;7.97;;;;;;;;;;5048834;28;20112;-55
2023/08/15 06:08:01;;;;;;;10.20;8.00;;;;;;;;;;5053344;28;20031;-52
2023/08/15 06:10:26;;;;;;;9.07;7.50;;;;;;;;;;5054401;28;20283;-53
2023/08/15 06:12:51;;;;;;;11.20;8.03;;;;;;;;;;5052100;28;20279;-49
2023/08/15 06:15:17;;;;;;;9.90;7.10;;;;;;;;;;5050445;28;20027;-49
2023/08/15 06:17:42;;;;;;;8.70;4.38;;;;;;;;;;5053136;28;20285;-49
2023/08/15 06:20:08;;;;;;;9.67;6.30;;;;;;;;;;5054839;28;20034;-53
2023/08/15 06:22:33;;;;;;;8.52;6.38;;;;;;;;;;5049729;28;20028;-50
2023/08/15 06:24:58;;;;;;;9.07;6.22;;;;;;;;;;5049433;28;20036;-49
2023/08/15 06:27:24;;;;;;;10.23;6.87;;;;;;;;;;5045105;28;20024;-51
2023/08/15 06:29:49;;;;;;;9.82;6.80;;;;;;;;;;5046574;28;20662;-53
2023/08/15 06:32:24;;;;;;;9.47;7.30;;;;;;;;;;5052754;28;20536;-51
2023/08/15 06:34:49;;;;;;;5.78;3.97;;;;;;;;;;5047586;28;20273;-49
2023/08/15 06:37:14;;;;;;;10.97;7.37;;;;;;;;;;5054277;28;20020;-50
2023/08/15 06:39:39;;;;;;;15.03;7.80;;;;;;;;;;5051783;28;20532;-51
2023/08/15 06:42:05;;;;;;;9.57;7.43;;;;;;;;;;5054074;28;20031;-48
2023/08/15 06:44:30;;;;;;;12.75;7.47;;;;;;;;;;5045179;28;20044;-48
2023/08/15 06:46:55;;;;;;;14.23;8.00;;;;;;;;;;5049860;28;20033;-48
2023/08/15 06:49:20;;;;;;;9.53;6.87;;;;;;;;;;5046387;28;20029;-50
2023/08/15 06:51:46;;;;;;;11.73;7.17;;;;;;;;;;5050737;28;20107;-48
2023/08/15 06:54:11;;;;;;;13.73;7.80;;;;;;;;;;5047891;28;21344;-49
2023/08/15 06:56:36;;;;;;;11.40;7.60;;;;;;;;;;5051138;28;20285;-50
2023/08/15 06:59:02;;;;;;;12.93;8.18;;;;;;;;;;5055258;28;24578;-48
2023/08/15 07:01:27;;;;;;;10.43;7.47;;;;;;;;;;5053977;28;20027;-50
2023/08/15 07:03:52;;;;;;;12.63;8.80;;;;;;;;;;5053325;28;20025;-51
2023/08/15 07:06:17;;;;;;;12.97;7.70;;;;;;;;;;5050603;28;20295;-48
2023/08/15 07:08:43;;;;;;;13.23;8.40;;;;;;;;;;5050914;28;20043;-50
2023/08/15 07:11:08;;;;;;;11.02;7.05;;;;;;;;;;5053473;28;20064;-48
2023/08/15 07:13:33;;;;;;;10.13;7.60;;;;;;;;;;5052179;28;20439;-48
2023/08/15 07:15:58;;;;;;;11.07;8.03;;;;;;;;;;5049974;28;20028;-48
2023/08/15 07:18:24;;;;;;;10.50;8.13;;;;;;;;;;5054045;28;20551;-50
2023/08/15 07:20:53;;;;;;;13.07;7.28;;;;;;;;;;5051884;28;20031;-47
2023/08/15 07:23:18;;;;;;;12.50;6.57;;;;;;;;;;5050285;28;20037;-48
2023/08/15 07:25:44;;;;;;;7.65;5.07;;;;;;;;;;5048464;28;20037;-48
2023/08/15 07:28:10;;;;;;;9.55;5.28;;;;;;;;;;5057197;28;20056;-47
2023/08/15 07:30:35;;;;;;;8.80;5.55;;;;;;;;;;5057223;28;20032;-47
2023/08/15 07:33:00;;;;;;;160.30;40.90;;;;;;;;;;5058759;28;20033;-48
2023/08/15 07:35:25;;;;;;;9.23;4.90;;;;;;;;;;5056978;28;20538;-47
2023/08/15 07:37:51;;;;;;;6.50;4.73;;;;;;;;;;5049226;28;20052;-47
2023/08/15 07:40:20;;;;;;;9.13;4.97;;;;;;;;;;5048729;28;20028;-47
2023/08/15 07:42:49;;;;;;;5.93;3.63;;;;;;;;;;5053024;28;20059;-47
2023/08/15 07:45:14;;;;;;;5.63;4.35;;;;;;;;;;5043591;28;20078;-47
2023/08/15 07:47:40;;;;;;;5.07;4.07;;;;;;;;;;5052519;28;20032;-47
2023/08/15 07:50:12;;;;;;;6.80;4.27;;;;;;;;;;5054569;28;20129;-47
2023/08/15 07:52:37;;;;;;;5.85;4.18;;;;;;;;;;5052677;28;20951;-46
2023/08/15 07:55:02;;;;;;;8.03;4.37;;;;;;;;;;5054207;28;20112;-46
2023/08/15 07:57:27;;;;;;;7.40;4.25;;;;;;;;;;5051222;28;20292;-46
2023/08/15 07:59:55;;;;;;;8.50;4.63;;;;;;;;;;5053526;28;20028;-47
2023/08/15 08:02:20;;;;;;;11.43;5.18;;;;;;;;;;5052377;28;20122;-46
2023/08/15 08:04:48;;;;;;;9.30;4.87;;;;;;;;;;5057844;28;20451;-46
2023/08/15 08:07:14;;;;;;;9.85;5.18;;;;;;;;;;5058855;28;20036;-46
2023/08/15 08:09:39;;;;;;;7.83;4.67;;;;;;;;;;5058043;28;20095;-46
2023/08/15 08:12:04;;;;;;;8.87;4.80;;;;;;;;;;5056157;28;21185;-46
2023/08/15 08:14:29;;;;;;;6.57;4.25;;;;;;;;;;5052139;28;20039;-45
2023/08/15 08:16:55;;;;;;;10.70;4.90;;;;;;;;;;5055915;28;20117;-45
2023/08/15 08:19:20;;;;;;;8.10;4.90;;;;;;;;;;5060313;28;20283;-45
2023/08/15 08:21:45;;;;;;;6.87;4.43;;;;;;;;;;5054703;28;20125;-45
2023/08/15 08:24:10;;;;;;;7.67;4.57;;;;;;;;;;5057146;28;20076;-45
2023/08/15 08:26:36;;;;;;;8.30;5.13;;;;;;;;;;5055647;28;20044;-45
2023/08/15 08:29:02;;;;;;;6.70;4.88;;;;;;;;;;5054036;28;20036;-45
2023/08/15 08:31:27;;;;;;;7.10;5.03;;;;;;;;;;5055664;28;20024;-45
2023/08/15 08:33:52;;;;;;;3.85;3.40;;;;;;;;;;5049782;28;20056;-45
2023/08/15 08:36:17;;;;;;;9.40;4.27;;;;;;;;;;5059551;28;20135;-45
2023/08/15 08:38:43;;;;;;;7.20;4.23;;;;;;;;;;5055909;28;20391;-45
2023/08/15 08:41:08;;;;;;;9.20;4.47;;;;;;;;;;5057878;28;20329;-45
2023/08/15 08:43:33;;;;;;;9.23;4.95;;;;;;;;;;5051019;28;20036;-45
2023/08/15 08:46:00;;;;;;;8.50;4.38;;;;;;;;;;5053498;28;20020;-45
2023/08/15 08:48:26;;;;;;;6.90;4.18;;;;;;;;;;5056743;28;20039;-45
2023/08/15 08:50:51;;;;;;;6.03;4.40;;;;;;;;;;5052581;28;20025;-46
2023/08/15 08:53:17;;;;;;;7.10;5.22;;;;;;;;;;5054198;28;20275;-45
2023/08/15 08:55:45;;;;;;;6.15;4.18;;;;;;;;;;5055179;28;20025;-45
2023/08/15 08:58:11;;;;;;;7.68;4.45;;;;;;;;;;5055753;28;20036;-46
2023/08/15 09:00:37;;;;;;;10.93;5.18;;;;;;;;;;5054808;28;20023;-45
2023/08/15 09:03:02;;;;;;;5.10;4.07;;;;;;;;;;5056542;28;20039;-45
2023/08/15 09:05:28;;;;;;;5.88;3.97;;;;;;;;;;5057647;28;20032;-45
2023/08/15 09:07:53;;;;;;;6.90;4.38;;;;;;;;;;5058809;28;20479;-45
2023/08/15 09:10:21;;;;;;;5.85;4.05;;;;;;;;;;5056120;28;20546;-46
2023/08/15 09:12:47;;;;;;;8.38;4.72;;;;;;;;;;5052074;28;20399;-45
2023/08/15 09:15:12;;;;;;;7.85;5.07;;;;;;;;;;5058804;28;20048;-45
2023/08/15 09:17:38;;;;;;;8.13;4.75;;;;;;;;;;5055997;28;20016;-45
2023/08/15 09:20:11;;;;;;;10.00;4.57;;;;;;;;;;5051912;28;20667;-46
2023/08/15 09:22:41;;;;;;;6.70;3.70;;;;;;;;;;5051360;28;20076;-45
2023/08/15 09:25:07;;;;;;;5.85;4.38;;;;;;;;;;5054626;28;20070;-45
2023/08/15 09:27:33;;;;;;;6.00;4.60;;;;;;;;;;5056549;28;20052;-45
2023/08/15 09:30:06;;;;;;;8.07;4.20;;;;;;;;;;5055375;28;20059;-45
2023/08/15 09:32:31;;;;;;;10.07;4.38;;;;;;;;;;5055103;28;20029;-45
2023/08/15 09:34:56;;;;;;;5.43;4.00;;;;;;;;;;5055787;28;20403;-45
2023/08/15 09:37:24;;;;;;;7.47;4.50;;;;;;;;;;5055285;28;20501;-45
2023/08/15 09:39:50;;;;;;;8.32;4.60;;;;;;;;;;5054072;28;20028;-45
2023/08/15 09:42:18;;;;;;;7.05;5.00;;;;;;;;;;5051649;28;20260;-45
2023/08/15 09:44:44;;;;;;;6.10;4.85;;;;;;;;;;5049791;28;20060;-45
2023/08/15 09:47:09;;;;;;;6.65;4.95;;;;;;;;;;5052635;28;20406;-45
2023/08/15 09:49:35;;;;;;;7.65;4.72;;;;;;;;;;5056134;28;20036;-45
2023/08/15 09:52:00;;;;;;;7.82;5.85;;;;;;;;;;5052878;28;20016;-45
2023/08/15 09:54:27;;;;;;;8.45;5.07;;;;;;;;;;5050691;28;20210;-45
2023/08/15 09:56:53;;;;;;;7.40;4.90;;;;;;;;;;5054012;28;20383;-45
2023/08/15 09:59:19;;;;;;;9.85;6.03;;;;;;;;;;5055441;28;20024;-45
2023/08/15 10:01:45;;;;;;;9.07;5.13;;;;;;;;;;5052915;28;20029;-45
2023/08/15 10:04:12;;;;;;;11.10;5.57;;;;;;;;;;5052902;28;20035;-46
2023/08/15 10:06:38;;;;;;;13.15;6.05;;;;;;;;;;5054176;28;20020;-45
2023/08/15 10:09:04;;;;;;;7.38;5.30;;;;;;;;;;5048333;28;20031;-46
2023/08/15 10:11:33;;;;;;;6.73;5.10;;;;;;;;;;4992773;28;1702591;-45
2023/08/15 10:13:59;;;;;;;8.82;5.15;;;;;;;;;;5053989;28;20270;-45
2023/08/15 10:16:24;;;;;;;6.85;5.15;;;;;;;;;;5054278;28;20154;-45
2023/08/15 10:18:53;;;;;;;10.40;5.65;;;;;;;;;;5056119;28;20028;-45
2023/08/15 10:21:19;;;;;;;8.75;5.68;;;;;;;;;;5049524;28;20035;-45
2023/08/15 10:23:44;;;;;;;7.27;5.73;;;;;;;;;;5049214;28;20032;-45
2023/08/15 10:26:10;;;;;;;8.03;5.90;;;;;;;;;;5042397;28;20286;-45
2023/08/15 10:28:35;;;;;;;7.22;5.15;;;;;;;;;;5054409;28;20035;-45
2023/08/15 10:31:01;;;;;;;8.10;5.40;;;;;;;;;;5050952;28;20032;-45
2023/08/15 10:33:29;;;;;;;9.23;5.28;;;;;;;;;;5053053;28;20016;-45
2023/08/15 10:35:54;;;;;;;7.40;4.97;;;;;;;;;;5046002;28;20108;-45
2023/08/15 10:38:25;;;;;;;8.57;5.37;;;;;;;;;;5058682;28;20081;-45
2023/08/15 10:40:51;;;;;;;8.45;4.32;;;;;;;;;;5050283;28;20273;-45
2023/08/15 10:43:17;;;;;;;6.95;4.60;;;;;;;;;;5050411;28;20039;-45
2023/08/15 10:45:50;;;;;;;8.57;5.00;;;;;;;;;;5060347;28;20541;-45
2023/08/15 10:48:35;;;;;;;92.00;33.47;;;;;;;;;;5054086;28;20036;-45
2023/08/15 10:51:00;;;;;;;5.18;4.63;;;;;;;;;;5049707;28;20510;-46
2023/08/15 10:53:25;;;;;;;5.50;4.27;;;;;;;;;;5053854;28;20017;-45
2023/08/15 10:55:53;;;;;;;17.70;5.17;;;;;;;;;;5054683;28;20121;-46
2023/08/15 10:58:20;;;;;;;10.05;4.68;;;;;;;;;;5038397;28;20020;-45
2023/08/15 11:00:45;;;;;;;5.65;3.75;;;;;;;;;;5055743;28;20055;-46
2023/08/15 11:03:11;;;;;;;7.55;5.00;;;;;;;;;;5032844;28;20024;-46
2023/08/15 11:05:36;;;;;;;7.03;4.60;;;;;;;;;;5047464;28;20096;-46
2023/08/15 11:08:14;;;;;;;7.47;5.40;;;;;;;;;;5052912;28;20036;-45
2023/08/15 11:10:48;;;;;;;7.15;4.85;;;;;;;;;;5047747;28;20067;-45
2023/08/15 11:13:13;;;;;;;9.45;4.78;;;;;;;;;;5054086;28;20387;-46
2023/08/15 11:15:38;;;;;;;8.43;4.70;;;;;;;;;;5049964;28;20510;-46
2023/08/15 11:18:03;;;;;;;8.13;4.23;;;;;;;;;;5046835;28;20038;-45
2023/08/15 11:20:29;;;;;;;8.07;5.22;;;;;;;;;;5054170;28;20277;-46
2023/08/15 11:22:56;;;;;;;9.15;5.20;;;;;;;;;;5049399;28;20074;-46
2023/08/15 11:25:21;;;;;;;6.00;4.60;;;;;;;;;;5048972;28;20122;-45
2023/08/15 11:27:50;;;;;;;5.27;4.60;;;;;;;;;;5049535;28;20017;-45
2023/08/15 11:30:15;;;;;;;6.95;5.00;;;;;;;;;;5049756;28;20115;-46
2023/08/15 11:32:40;;;;;;;12.45;6.35;;;;;;;;;;5050493;28;20099;-45
2023/08/15 11:35:06;;;;;;;8.40;5.50;;;;;;;;;;5044905;28;20082;-46
2023/08/15 11:37:32;;;;;;;9.85;5.90;;;;;;;;;;5051159;28;20641;-46
2023/08/15 11:39:57;;;;;;;8.27;6.07;;;;;;;;;;5047725;28;20487;-46
2023/08/15 11:42:22;;;;;;;9.80;6.17;;;;;;;;;;5052297;28;20054;-46
2023/08/15 11:44:59;;;;;;;7.33;5.50;;;;;;;;;;5050635;28;20368;-45
2023/08/15 11:48:00;;;;;;;8.15;5.63;;;;;;;;;;5050644;28;20354;-45
2023/08/15 11:50:26;;;;;;;6.43;4.90;;;;;;;;;;4971651;28;20034;-45
2023/08/15 11:52:52;;;;;;;7.90;5.05;;;;;;;;;;5034149;28;20025;-45
2023/08/15 11:55:20;;;;;;;8.02;5.20;;;;;;;;;;5044170;28;20029;-45
2023/08/15 11:57:46;;;;;;;8.75;5.25;;;;;;;;;;5050056;28;20031;-46
2023/08/15 12:00:11;;;;;;;7.00;5.03;;;;;;;;;;5048505;28;20032;-45
2023/08/15 12:02:43;;;;;;;8.30;4.38;;;;;;;;;;5047378;28;20107;-45
2023/08/15 12:05:12;;;;;;;7.00;4.90;;;;;;;;;;5048055;28;20086;-46
2023/08/15 12:07:37;;;;;;;6.80;5.07;;;;;;;;;;5052958;28;20060;-45
2023/08/15 12:10:04;;;;;;;9.30;5.25;;;;;;;;;;5045797;28;20060;-45
2023/08/15 12:12:29;;;;;;;6.40;5.03;;;;;;;;;;5046014;28;20088;-45
2023/08/15 12:14:56;;;;;;;6.40;5.33;;;;;;;;;;5052424;28;20028;-45
2023/08/15 12:17:21;;;;;;;8.93;6.13;;;;;;;;;;5051826;28;20518;-46
2023/08/15 12:19:46;;;;;;;8.33;6.23;;;;;;;;;;5047732;28;20104;-45
2023/08/15 12:22:11;;;;;;;8.70;6.25;;;;;;;;;;5051879;28;20097;-46
2023/08/15 12:24:37;;;;;;;8.03;5.80;;;;;;;;;;5054795;28;20039;-46
2023/08/15 12:27:02;;;;;;;9.80;5.90;;;;;;;;;;5054253;28;20460;-45
2023/08/15 12:29:28;;;;;;;9.05;7.10;;;;;;;;;;5054530;28;20020;-45
2023/08/15 12:31:53;;;;;;;10.73;7.38;;;;;;;;;;5052552;28;20016;-45
2023/08/15 12:34:18;;;;;;;9.40;5.83;;;;;;;;;;5051296;28;20437;-46
2023/08/15 12:36:44;;;;;;;8.57;5.80;;;;;;;;;;5052809;28;20275;-45
2023/08/15 12:39:09;;;;;;;7.13;5.70;;;;;;;;;;5053430;28;20021;-45
2023/08/15 12:41:34;;;;;;;9.63;6.13;;;;;;;;;;5050302;28;20017;-46
2023/08/15 12:44:00;;;;;;;7.63;6.43;;;;;;;;;;5052589;28;20275;-45
2023/08/15 12:46:25;;;;;;;9.27;6.13;;;;;;;;;;5055294;28;20025;-45
2023/08/15 12:48:50;;;;;;;7.50;6.75;;;;;;;;;;5053276;28;20033;-46
2023/08/15 12:51:15;;;;;;;6.27;3.90;;;;;;;;;;5052854;28;20024;-45
2023/08/15 12:53:41;;;;;;;7.80;5.93;;;;;;;;;;5055283;28;20020;-45
2023/08/15 12:56:06;;;;;;;11.33;6.50;;;;;;;;;;5058849;28;20174;-45
2023/08/15 12:58:31;;;;;;;8.27;6.53;;;;;;;;;;5049398;28;20028;-45
2023/08/15 13:00:57;;;;;;;7.25;6.07;;;;;;;;;;5056587;28;20378;-45
2023/08/15 13:03:22;;;;;;;9.80;7.50;;;;;;;;;;5029184;28;20033;-45
2023/08/15 13:05:47;;;;;;;8.90;6.87;;;;;;;;;;5049519;28;21342;-45
2023/08/15 13:11:15;;;;;;;8.02;6.50;;;;;;;;;;5063238;28;20078;-45
2023/08/15 13:13:41;;;;;;;11.07;7.10;;;;;;;;;;5056296;28;20463;-46
2023/08/15 13:16:06;;;;;;;13.48;7.38;;;;;;;;;;5057747;28;20025;-45
2023/08/15 13:18:32;;;;;;;15.00;8.82;;;;;;;;;;5059430;28;20067;-45
2023/08/15 13:20:57;;;;;;;17.53;10.60;;;;;;;;;;5059754;28;20442;-45
2023/08/15 13:23:22;;;;;;;13.37;9.47;;;;;;;;;;5059126;28;20033;-45
2023/08/15 13:25:47;;;;;;;10.67;7.67;;;;;;;;;;5055743;28;20529;-46
2023/08/15 13:28:13;;;;;;;13.47;8.00;;;;;;;;;;5060825;28;20082;-45
2023/08/15 13:30:38;;;;;;;12.60;7.80;;;;;;;;;;5056973;28;20028;-45
2023/08/15 13:33:04;;;;;;;8.23;7.20;;;;;;;;;;5058064;28;20501;-46
2023/08/15 13:35:30;;;;;;;8.23;7.30;;;;;;;;;;5053705;28;20024;-45
2023/08/15 13:37:55;;;;;;;8.63;7.00;;;;;;;;;;5053044;28;20028;-45
2023/08/15 13:40:20;;;;;;;12.03;8.33;;;;;;;;;;5052863;28;20029;-46
2023/08/15 13:42:46;;;;;;;4.87;4.13;;;;;;;;;;5058098;28;20039;-45
2023/08/15 13:45:11;;;;;;;13.23;9.53;;;;;;;;;;5060626;28;20238;-45
2023/08/15 13:47:40;;;;;;;17.53;10.20;;;;;;;;;;5058657;28;20032;-45
2023/08/15 13:50:05;;;;;;;9.35;7.55;;;;;;;;;;5059622;28;20297;-46
2023/08/15 13:52:31;;;;;;;10.40;7.30;;;;;;;;;;5055805;28;20430;-45
2023/08/15 13:54:56;;;;;;;14.97;7.53;;;;;;;;;;5055094;28;20036;-46
2023/08/15 14:03:04;;;;;;;8.68;7.18;;;;;;;;;;5056496;28;20786;-45
2023/08/15 14:05:29;;;;;;;15.23;7.40;;;;;;;;;;5056274;28;20033;-45
2023/08/15 14:07:54;;;;;;;12.07;7.20;;;;;;;;;;5051871;28;20399;-46
2023/08/15 14:10:20;;;;;;;10.63;6.80;;;;;;;;;;5053444;28;20637;-45
2023/08/15 14:12:45;;;;;;;10.23;6.93;;;;;;;;;;5057828;28;20036;-46
2023/08/15 14:15:12;;;;;;;8.93;7.90;;;;;;;;;;5050507;28;20492;-46
2023/08/15 14:17:37;;;;;;;9.45;6.72;;;;;;;;;;5053902;28;20028;-46
2023/08/15 14:20:03;;;;;;;9.40;7.00;;;;;;;;;;5056964;28;20035;-46
2023/08/15 14:22:28;;;;;;;10.93;7.53;;;;;;;;;;5056784;28;20029;-46
2023/08/15 14:24:54;;;;;;;9.63;7.17;;;;;;;;;;5054509;28;20029;-46
2023/08/15 14:27:19;;;;;;;12.60;7.18;;;;;;;;;;5057995;28;20028;-46
2023/08/15 14:29:44;;;;;;;10.70;7.03;;;;;;;;;;5059752;28;20082;-46
2023/08/15 14:32:10;;;;;;;9.13;6.27;;;;;;;;;;5055745;28;20025;-46
2023/08/15 14:34:35;;;;;;;8.93;5.07;;;;;;;;;;5058110;28;20033;-46
2023/08/15 14:37:00;;;;;;;11.13;7.93;;;;;;;;;;5055282;28;20101;-46